GABCG EGJJ-EGJJ

Flight info

Callsign GABCG
Flight time 0h 30m
Altitude 1000
Route DCT
Aircraft C152/L-V/N

Departure

Time 2026-05-04 20:26
Airport Jersey Airport (EGJJ)

Arrival

Time 2026-05-04 20:56
Airport Jersey Airport (EGJJ)
Time Latitude Longitude Altitude Speed Heading
2026-05-04 20:15 49.20490 -2.19844 275 ft 0 kts 350°
2026-05-04 20:22 49.20502 -2.19884 275 ft 11 kts 276°
2026-05-04 20:22 49.20507 -2.19981 274 ft 12 kts 314°
2026-05-04 20:22 49.20563 -2.20086 274 ft 14 kts 347°
2026-05-04 20:23 49.20639 -2.20101 274 ft 0 kts 355°
2026-05-04 20:23 49.20642 -2.20102 274 ft 5 kts 353°
2026-05-04 20:23 49.20738 -2.20095 273 ft 18 kts 40°
2026-05-04 20:23 49.20758 -2.20042 274 ft 0 kts 79°
2026-05-04 20:24 49.20758 -2.20041 274 ft 2 kts 79°
2026-05-04 20:25 49.20780 -2.19793 275 ft 46 kts 82°
2026-05-04 20:25 49.20831 -2.19144 355 ft 67 kts 84°
2026-05-04 20:25 49.20879 -2.18394 423 ft 81 kts 81°
2026-05-04 20:25 49.20978 -2.17483 469 ft 87 kts 80°
2026-05-04 20:26 49.21067 -2.16607 639 ft 83 kts 81°
2026-05-04 20:26 49.21150 -2.15734 814 ft 83 kts 80°
2026-05-04 20:26 49.21150 -2.14891 992 ft 82 kts 106°
2026-05-04 20:26 49.20694 -2.14267 1000 ft 99 kts 158°
2026-05-04 20:27 49.19994 -2.14096 1012 ft 104 kts 171°
2026-05-04 20:27 49.19258 -2.13936 1008 ft 108 kts 171°
2026-05-04 20:27 49.18525 -2.13780 1007 ft 105 kts 170°
2026-05-04 20:27 49.17799 -2.13624 1007 ft 104 kts 170°
2026-05-04 20:28 49.17077 -2.13474 1006 ft 105 kts 171°
2026-05-04 20:28 49.16366 -2.13455 1005 ft 104 kts 203°
2026-05-04 20:28 49.16005 -2.14319 995 ft 100 kts 263°
2026-05-04 20:28 49.15859 -2.15363 996 ft 100 kts 260°
2026-05-04 20:29 49.15705 -2.16401 998 ft 100 kts 261°
2026-05-04 20:29 49.15558 -2.17427 995 ft 100 kts 260°
2026-05-04 20:29 49.15413 -2.18469 999 ft 101 kts 261°
2026-05-04 20:29 49.15263 -2.19524 1001 ft 102 kts 260°
2026-05-04 20:30 49.15114 -2.20585 1000 ft 102 kts 260°
2026-05-04 20:30 49.14962 -2.21647 998 ft 102 kts 259°
2026-05-04 20:30 49.14814 -2.22700 1000 ft 101 kts 260°
2026-05-04 20:30 49.14665 -2.23736 1001 ft 102 kts 260°
2026-05-04 20:31 49.14517 -2.24789 1002 ft 101 kts 260°
2026-05-04 20:31 49.14364 -2.25855 1000 ft 102 kts 261°
2026-05-04 20:31 49.14202 -2.26906 996 ft 99 kts 261°
2026-05-04 20:31 49.14045 -2.27934 996 ft 99 kts 260°
2026-05-04 20:32 49.13886 -2.28967 1000 ft 102 kts 260°
2026-05-04 20:32 49.13926 -2.29984 993 ft 95 kts 311°
2026-05-04 20:32 49.14490 -2.30159 988 ft 90 kts 28°
2026-05-04 20:32 49.15031 -2.29643 960 ft 94 kts 30°
2026-05-04 20:33 49.15592 -2.29123 910 ft 94 kts 30°
2026-05-04 20:33 49.16154 -2.28598 852 ft 95 kts 31°
2026-05-04 20:33 49.16729 -2.28068 811 ft 97 kts 30°
2026-05-04 20:33 49.17293 -2.27548 808 ft 95 kts 31°
2026-05-04 20:34 49.17840 -2.27035 860 ft 89 kts 30°
2026-05-04 20:34 49.18364 -2.26545 895 ft 90 kts 29°
2026-05-04 20:34 49.18918 -2.26059 895 ft 92 kts 21°
2026-05-04 20:34 49.19503 -2.25719 943 ft 91 kts 19°
2026-05-04 20:35 49.20068 -2.25267 880 ft 97 kts 42°
2026-05-04 20:35 49.20347 -2.24354 803 ft 100 kts 75°
2026-05-04 20:35 49.20444 -2.23300 721 ft 100 kts 80°
2026-05-04 20:35 49.20558 -2.22238 509 ft 99 kts 77°
2026-05-04 20:36 49.20654 -2.21259 408 ft 86 kts 81°
2026-05-04 20:36 49.20725 -2.20423 289 ft 74 kts 83°
2026-05-04 20:36 49.20783 -2.19713 275 ft 73 kts 83°
2026-05-04 20:36 49.20846 -2.18911 373 ft 77 kts 83°
2026-05-04 20:37 49.20900 -2.18093 484 ft 77 kts 83°
2026-05-04 20:37 49.20951 -2.17287 641 ft 74 kts 81°
2026-05-04 20:37 49.20997 -2.16533 799 ft 68 kts 81°
2026-05-04 20:37 49.21030 -2.15800 976 ft 72 kts 82°
2026-05-04 20:38 49.21077 -2.14939 1005 ft 88 kts 81°
2026-05-04 20:38 49.21059 -2.13979 1011 ft 98 kts 112°
2026-05-04 20:38 49.20470 -2.13481 1009 ft 104 kts 172°
2026-05-04 20:38 49.19742 -2.13325 1010 ft 106 kts 171°
2026-05-04 20:39 49.19009 -2.13159 1009 ft 108 kts 170°
2026-05-04 20:39 49.18261 -2.12997 1005 ft 108 kts 171°
2026-05-04 20:39 49.17517 -2.12827 1009 ft 108 kts 170°
2026-05-04 20:39 49.16776 -2.12671 1007 ft 108 kts 174°
2026-05-04 20:40 49.16159 -2.13195 996 ft 106 kts 248°
2026-05-04 20:40 49.15996 -2.14264 1003 ft 103 kts 261°
2026-05-04 20:40 49.15839 -2.15342 1000 ft 103 kts 260°
2026-05-04 20:40 49.15685 -2.16403 999 ft 103 kts 260°
2026-05-04 20:41 49.15532 -2.17479 995 ft 103 kts 260°
2026-05-04 20:41 49.15383 -2.18554 998 ft 104 kts 261°
2026-05-04 20:41 49.15267 -2.19647 1000 ft 104 kts 269°
2026-05-04 20:41 49.15306 -2.20745 1002 ft 103 kts 279°
2026-05-04 20:42 49.15372 -2.21843 1004 ft 104 kts 279°
2026-05-04 20:42 49.15424 -2.22940 1001 ft 103 kts 278°
2026-05-04 20:42 49.15480 -2.24030 1003 ft 103 kts 278°
2026-05-04 20:42 49.15678 -2.25030 996 ft 98 kts 321°
2026-05-04 20:43 49.16311 -2.25224 995 ft 95 kts
2026-05-04 20:43 49.16967 -2.25223 995 ft 96 kts
2026-05-04 20:43 49.17631 -2.25237 1000 ft 96 kts
2026-05-04 20:43 49.18305 -2.25241 999 ft 97 kts
2026-05-04 20:44 49.18981 -2.25253 1004 ft 97 kts
2026-05-04 20:44 49.19652 -2.25156 978 ft 97 kts 14°
2026-05-04 20:44 49.20207 -2.24598 950 ft 97 kts 50°
2026-05-04 20:44 49.20460 -2.23584 775 ft 107 kts 77°
2026-05-04 20:45 49.20547 -2.22457 567 ft 108 kts 79°
2026-05-04 20:45 49.20647 -2.21343 432 ft 101 kts 81°
2026-05-04 20:45 49.20732 -2.20338 286 ft 86 kts 83°
2026-05-04 20:45 49.20794 -2.19522 310 ft 78 kts 83°
2026-05-04 20:46 49.20841 -2.18717 463 ft 78 kts 85°
2026-05-04 20:46 49.20879 -2.17865 580 ft 81 kts 83°
2026-05-04 20:46 49.20914 -2.17270 580 ft 92 kts 83°
2026-05-04 20:46 49.20993 -2.15943 675 ft 92 kts 82°
2026-05-04 20:47 49.21046 -2.15000 838 ft 85 kts 82°
2026-05-04 20:47 49.20829 -2.14212 986 ft 89 kts 150°
2026-05-04 20:47 49.20177 -2.14048 998 ft 100 kts 171°
2026-05-04 20:47 49.19707 -2.13935 1007 ft 103 kts 170°
2026-05-04 20:48 49.18978 -2.13774 1010 ft 108 kts 171°
2026-05-04 20:48 49.18238 -2.13608 1009 ft 107 kts 171°
2026-05-04 20:48 49.17505 -2.13440 1008 ft 107 kts 170°
2026-05-04 20:48 49.16764 -2.13282 1008 ft 108 kts 171°
2026-05-04 20:49 49.16025 -2.13118 1008 ft 107 kts 171°
2026-05-04 20:49 49.15293 -2.12956 1004 ft 105 kts 170°
2026-05-04 20:49 49.14595 -2.13144 996 ft 107 kts 223°
2026-05-04 20:49 49.14343 -2.14158 993 ft 103 kts 262°
2026-05-04 20:50 49.14185 -2.15231 995 ft 103 kts 260°
2026-05-04 20:50 49.14035 -2.16301 999 ft 104 kts 260°
2026-05-04 20:50 49.13883 -2.17366 1005 ft 105 kts 260°
2026-05-04 20:50 49.13729 -2.18460 1003 ft 105 kts 260°
2026-05-04 20:51 49.13685 -2.19547 1001 ft 102 kts 284°
2026-05-04 20:51 49.13841 -2.20607 1002 ft 102 kts 286°
2026-05-04 20:51 49.14000 -2.21657 1000 ft 101 kts 286°
2026-05-04 20:51 49.14146 -2.22711 1001 ft 102 kts 287°
2026-05-04 20:52 49.14300 -2.23776 999 ft 102 kts 287°
2026-05-04 20:52 49.14520 -2.24789 998 ft 99 kts 300°
2026-05-04 20:52 49.14871 -2.25699 1001 ft 100 kts 309°
2026-05-04 20:52 49.15345 -2.26469 1002 ft 99 kts 326°
2026-05-04 20:53 49.15942 -2.26913 999 ft 97 kts 353°
2026-05-04 20:53 49.16607 -2.27085 1002 ft 96 kts 350°
2026-05-04 20:53 49.17273 -2.27262 1000 ft 97 kts 351°
2026-05-04 20:53 49.17929 -2.27431 1003 ft 97 kts 352°
2026-05-04 20:54 49.18589 -2.27603 1002 ft 96 kts 351°
2026-05-04 20:54 49.19249 -2.27762 1004 ft 95 kts
2026-05-04 20:54 49.19809 -2.27281 1005 ft 96 kts 46°
2026-05-04 20:54 49.20112 -2.26371 992 ft 100 kts 71°
2026-05-04 20:55 49.20256 -2.25300 889 ft 105 kts 78°
2026-05-04 20:55 49.20364 -2.24223 766 ft 108 kts 79°
2026-05-04 20:55 49.20474 -2.23083 568 ft 106 kts 80°
2026-05-04 20:55 49.20579 -2.22043 501 ft 93 kts 79°
2026-05-04 20:56 49.20667 -2.21092 375 ft 86 kts 79°
2026-05-04 20:56 49.20740 -2.20253 286 ft 74 kts 83°
2026-05-04 20:56 49.20792 -2.19591 276 ft 50 kts 84°
2026-05-04 20:56 49.20818 -2.19235 277 ft 26 kts 91°
2026-05-04 20:57 49.20783 -2.18991 276 ft 22 kts 113°
2026-05-04 20:57 49.20714 -2.18823 276 ft 15 kts 126°
2026-05-04 20:57 49.20720 -2.18684 276 ft 12 kts 84°
2026-05-04 20:57 49.20732 -2.18536 277 ft 15 kts 80°
2026-05-04 20:58 49.20701 -2.18417 277 ft 11 kts 89°
2026-05-04 20:58 49.20680 -2.18341 277 ft 0 kts 179°